ウィーン の空港の天気 - METARとTAF

ウィーン国際空港 ( LOWW / VIE ) - オーストリア ウィーン
飛行場実況気象(Metar)
観測時間04/19 13:20 CEST (04/19 11:20 UTC)
風向・風速北 5m/s
視程10km以上
天気現象
なし
気温22℃
湿度46%
気圧1030hPa
METARLOWW 191120Z 35010KT CAVOK 22/10 Q1030 NOSIG
過去の天気等 Google飛行場航空写真 Wunderground天気予報

過去48時間のMETAR

飛行場予報(TAF)
発表時間: 4/19 13:15 CEST (4/19 11:15 UTC)
予報対象時間: 19日14時 CEST ~ 20日20時 CEST
風向・風速北 5m/s
視程10km以上
なし
19日21時 CEST ~ 20日9時 CEST に一時的に
風向・風速西北西 2m/s
TAF LOWW 191115Z 1912/2018 36010KT CAVOK TX25/2015Z TN13/2004Z
TEMPO 1919/2007 30004KT